Terminal Aerodrome Forecast
Issued by NWS Charleston, WV

Current Version | Previous Version | Text Only | Print | Product List | Glossary Off
Versions: 1 2 3 4 5 6 7 8 9 10 11 12 13 14 15 16 17 18 19 20 21 22 23 24 25 26 27 28

000
FTUS41 KRLX 232100 AAB
TAFCRW
TAF AMD
KCRW 232126Z 2321/2418 25007KT P6SM SCT040 SCT080
     FM240500 01004KT 4SM TSRA BR OVC020CB
     FM240700 01004KT 5SM SHRA BR VCTS OVC015CB
     FM240900 VRB03KT 5SM SHRA BR OVC015
     FM241000 01004KT 5SM BR OVC020
     FM241300 36005KT P6SM BKN020
     FM241400 35005KT P6SM BKN025=

USA.gov is the U.S. government's official web portal to all federal, state and local government web resources and services.